Time;durP1;ratioP1;P1;durP2;ratioP2;P2;SDS_P1;SDS_P2;PMS_P1;PMS_P2;Temp;Humidity;BMP_temperature;BMP_pressure;BME280_temperature;BME280_humidity;BME280_pressure;Samples;Min_cycle;Max_cycle;Signal;HPM_P1;HPM_P2
2021/05/17 00:01:48;;;;;;;;;;;12.40;99.90;;;12.41;90.50;99821.56;4810056;29;19925;-76
2021/05/17 00:04:16;;;;;;;;;;;12.30;99.90;;;12.45;90.79;99824.09;4809652;29;19924;-75
2021/05/17 00:06:44;;;;;;;;;;;12.40;99.90;;;12.37;91.06;99822.56;4809956;29;20386;-74
2021/05/17 00:09:12;;;;;;;;;;;12.30;99.90;;;12.38;91.09;99809.28;4809934;29;19925;-75
2021/05/17 00:11:42;;;;;;;;;;;12.30;99.90;;;12.32;91.05;99821.81;4809533;29;20342;-75
2021/05/17 00:14:10;;;;;;;;;;;12.20;99.90;;;12.24;90.89;99792.88;4809802;29;19936;-75
2021/05/17 00:16:39;;;;;;;;;;;12.30;99.90;;;12.37;90.80;99817.25;4809513;29;19936;-75
2021/05/17 00:19:07;;;;;;;;;;;12.30;99.90;;;12.36;90.79;99813.75;4809307;29;19925;-75
2021/05/17 00:21:36;;;;;;;;;;;12.30;99.90;;;12.35;90.66;99814.66;4808441;29;19936;-74
2021/05/17 00:24:05;;;;;;;;;;;12.30;99.90;;;12.28;90.59;99814.88;4809672;29;19925;-75
2021/05/17 00:26:33;;;;;;;;;;;12.20;99.90;;;12.34;90.27;99812.94;4809586;29;19932;-73
2021/05/17 00:29:02;;;;;;;;;;;12.20;99.90;;;12.33;90.31;99815.63;4809520;29;19928;-74
2021/05/17 00:31:30;;;;;;;;;;;12.20;99.90;;;12.28;89.98;99797.19;4808265;29;19968;-75
2021/05/17 00:33:58;;;;;;;;;;;12.20;99.90;;;12.34;89.75;99804.97;4809482;29;20008;-74
2021/05/17 00:36:26;;;;;;;;;;;12.20;99.90;;;12.32;89.77;99806.78;4809392;29;19925;-74
2021/05/17 00:38:54;;;;;;;;;;;12.20;99.90;;;12.34;89.60;99806.75;4809288;29;19932;-75
2021/05/17 00:41:22;;;;;;;;;;;12.20;99.90;;;12.33;89.46;99802.38;4809381;29;19952;-75
2021/05/17 00:43:52;;;;;;;;;;;12.20;99.90;;;12.24;89.17;99799.97;4809058;29;20399;-75
2021/05/17 00:46:22;;;;;;;;;;;12.20;99.90;;;12.24;89.08;99807.91;4808174;29;19989;-75
2021/05/17 00:48:50;;;;;;;;;;;12.20;99.90;;;11.99;88.83;99780.34;4808943;29;19929;-74
2021/05/17 00:51:18;;;;;;;;;;;12.10;99.90;;;12.19;88.36;99801.88;4809227;29;20088;-74
2021/05/17 00:53:47;;;;;;;;;;;12.20;99.90;;;12.22;87.97;99796.47;4808806;29;20418;-75
2021/05/17 00:56:14;;;;;;;;;;;12.10;99.90;;;11.58;88.22;99692.25;4808323;29;20012;-75
2021/05/17 00:58:46;;;;;;;;;;;12.10;99.90;;;12.20;88.00;99799.19;4810950;29;19925;-75
2021/05/17 01:01:16;;;;;;;;;;;12.20;99.90;;;12.16;88.16;99807.25;4827009;29;19925;-75
2021/05/17 01:03:44;;;;;;;;;;;12.10;99.90;;;12.03;87.66;99774.06;4827133;29;19973;-73
2021/05/17 01:06:32;;;;;;;;;;;12.10;99.90;;;12.13;87.41;99796.75;4810924;29;19925;-74
2021/05/17 01:09:03;;;;;;;;;;;12.10;99.90;;;12.07;87.17;99794.25;4810043;29;20378;-73
2021/05/17 01:11:34;;;;;;;;;;;12.00;99.90;;;11.73;87.71;99750.13;4826975;29;19928;-74
2021/05/17 01:14:05;;;;;;;;;;;12.00;99.90;;;11.95;88.92;99805.19;4826882;29;20295;-74
2021/05/17 01:16:35;;;;;;;;;;;12.00;99.90;;;11.91;88.60;99769.09;4810670;29;19971;-73
2021/05/17 01:19:12;;;;;;;;;;;12.00;99.90;;;12.07;88.88;99802.22;4826474;29;19974;-73
2021/05/17 01:21:51;;;;;;;;;;;12.00;99.90;;;12.18;88.50;99794.81;4826984;29;20387;-74
2021/05/17 01:24:22;;;;;;;;;;;12.00;99.90;;;12.08;87.78;99794.22;4810656;29;19929;-74
2021/05/17 01:26:50;;;;;;;;;;;12.10;99.90;;;12.13;87.74;99792.31;4826927;29;19925;-75
2021/05/17 01:29:18;;;;;;;;;;;12.00;99.90;;;12.10;88.38;99794.19;4810580;29;19925;-75
2021/05/17 01:31:47;;;;;;;;;;;12.00;99.90;;;12.23;88.33;99791.13;4810255;29;20379;-74
2021/05/17 01:34:16;;;;;;;;;;;12.10;99.90;;;12.29;88.23;99782.16;4826587;29;19976;-74
2021/05/17 01:36:44;;;;;;;;;;;12.20;99.90;;;12.31;88.30;99791.78;4810175;29;19925;-74
2021/05/17 01:39:15;;;;;;;;;;;12.20;99.90;;;12.40;87.93;99788.00;4826426;29;19925;-74
2021/05/17 01:41:45;;;;;;;;;;;12.30;99.90;;;12.42;87.86;99788.84;4810086;29;19956;-74
2021/05/17 01:44:14;;;;;;;;;;;12.40;99.90;;;12.49;88.21;99785.06;4826357;29;19936;-74
2021/05/17 01:46:45;;;;;;;;;;;12.40;99.90;;;12.52;87.97;99785.00;4810315;29;19928;-74
2021/05/17 01:49:14;;;;;;;;;;;12.40;99.90;;;12.61;88.07;99787.38;4826697;29;19982;-74
2021/05/17 01:51:44;;;;;;;;;;;12.50;99.90;;;12.62;88.00;99781.13;4809902;29;19929;-74
2021/05/17 01:54:12;;;;;;;;;;;12.50;99.90;;;12.73;87.86;99789.66;4809858;29;19971;-75
2021/05/17 01:56:44;;;;;;;;;;;12.60;99.90;;;12.81;88.07;99787.66;4826405;29;19935;-74
2021/05/17 01:59:28;;;;;;;;;;;12.70;99.90;;;12.84;87.74;99782.22;4826072;29;19932;-74
2021/05/17 02:01:56;;;;;;;;;;;12.80;99.90;;;12.79;87.61;99762.94;4826164;29;19931;-74
2021/05/17 02:04:25;;;;;;;;;;;12.80;99.90;;;12.76;87.47;99768.31;4809661;29;19948;-74
2021/05/17 02:06:54;;;;;;;;;;;12.80;99.90;;;13.03;87.15;99786.06;4825986;29;19929;-73
2021/05/17 02:09:25;;;;;;;;;;;12.90;99.90;;;12.91;86.97;99773.16;4826037;29;20360;-74
2021/05/17 02:11:54;;;;;;;;;;;12.80;99.90;;;12.83;87.35;99784.94;4825606;29;19925;-74
2021/05/17 02:15:00;;;;;;;;;;;12.70;99.90;;;12.74;87.51;99785.22;4820273;29;20300;-74
2021/05/17 02:17:33;;;;;;;;;;;12.70;99.90;;;12.76;87.85;99786.91;4825680;29;20329;-74
2021/05/17 02:20:01;;;;;;;;;;;12.60;99.90;;;12.83;87.18;99785.81;4824933;29;19929;-73
2021/05/17 02:22:37;;;;;;;;;;;12.70;99.90;;;12.95;87.10;99782.75;4809394;29;20341;-74
2021/05/17 02:25:20;;;;;;;;;;;12.80;99.90;;;12.97;86.52;99774.78;4825763;29;19951;-74
2021/05/17 02:27:50;;;;;;;;;;;12.80;99.90;;;13.08;86.17;99784.16;4809386;29;19964;-73
2021/05/17 02:30:20;;;;;;;;;;;12.90;99.90;;;13.10;85.83;99781.47;4809314;29;19932;-73
2021/05/17 02:32:50;;;;;;;;;;;13.00;99.90;;;12.48;85.80;99669.31;4825640;29;19977;-73
2021/05/17 02:35:27;;;;;;;;;;;13.00;99.90;;;12.88;86.51;99777.69;4808963;29;19969;-73
2021/05/17 02:37:55;;;;;;;;;;;12.80;99.90;;;12.91;86.59;99786.41;4809096;29;19925;-74
2021/05/17 02:40:24;;;;;;;;;;;12.80;99.90;;;13.02;86.75;99780.78;4825251;29;19932;-73
2021/05/17 02:42:59;;;;;;;;;;;12.80;99.90;;;13.12;86.31;99783.16;4825477;29;19924;-73
2021/05/17 02:45:35;;;;;;;;;;;12.90;99.90;;;13.11;86.11;99778.75;4809082;29;20395;-73
2021/05/17 02:48:05;;;;;;;;;;;13.00;99.90;;;13.13;86.09;99778.69;4825599;29;19925;-74
2021/05/17 02:50:34;;;;;;;;;;;13.00;99.90;;;13.20;85.94;99764.31;4825347;29;19960;-73
2021/05/17 02:53:23;;;;;;;;;;;13.00;99.90;;;13.29;85.53;99786.13;4825191;29;20462;-73
2021/05/17 02:55:54;;;;;;;;;;;13.10;99.90;;;13.21;85.64;99774.88;4808818;29;19924;-74
2021/05/17 02:58:24;;;;;;;;;;;13.10;99.90;;;13.22;86.05;99779.25;4808525;29;19964;-73
2021/05/17 03:01:01;;;;;;;;;;;13.10;99.90;;;13.17;86.14;99775.91;4808972;29;19931;-75
2021/05/17 03:03:30;;;;;;;;;;;13.10;99.90;;;13.09;86.99;99769.06;4808668;29;19935;-75
2021/05/17 03:06:04;;;;;;;;;;;13.00;99.90;;;13.04;87.42;99779.00;4808725;29;20029;-75
2021/05/17 03:08:42;;;;;;;;;;;12.90;99.90;;;13.01;87.60;99773.72;4808680;29;20328;-74
2021/05/17 03:11:13;;;;;;;;;;;12.90;99.90;;;12.99;87.92;99771.13;4808638;29;19967;-76
2021/05/17 03:13:43;;;;;;;;;;;12.90;99.90;;;13.00;87.79;99782.63;4808570;29;19964;-75
2021/05/17 03:16:14;;;;;;;;;;;12.90;99.90;;;13.03;87.89;99778.13;4808607;29;19928;-75
2021/05/17 03:18:43;;;;;;;;;;;12.80;99.90;;;12.99;88.01;99771.13;4808248;29;19924;-76
2021/05/17 03:21:11;;;;;;;;;;;12.90;99.90;;;13.02;88.24;99779.00;4824979;29;19970;-77
2021/05/17 03:23:39;;;;;;;;;;;12.90;99.90;;;12.90;87.95;99754.63;4824905;29;19940;-76
2021/05/17 03:26:07;;;;;;;;;;;12.90;99.90;;;13.02;88.08;99771.06;4824976;29;20355;-76
2021/05/17 03:28:34;;;;;;;;;;;12.90;99.90;;;13.11;87.92;99776.09;4824896;29;19932;-77
2021/05/17 03:31:03;;;;;;;;;;;12.90;99.90;;;13.10;88.04;99769.06;4824780;29;19925;-78
2021/05/17 03:33:31;;;;;;;;;;;12.90;99.90;;;13.03;87.70;99772.81;4808324;29;19973;-77
2021/05/17 03:35:58;;;;;;;;;;;13.00;99.90;;;13.03;88.06;99767.50;4824582;29;19929;-77
2021/05/17 03:38:26;;;;;;;;;;;12.80;99.90;;;12.94;88.14;99769.53;4824503;29;20417;-77
2021/05/17 03:40:54;;;;;;;;;;;12.80;99.90;;;12.83;88.45;99772.56;4824797;29;20023;-78
2021/05/17 03:43:21;;;;;;;;;;;12.80;99.90;;;12.66;88.63;99746.53;4824807;29;19933;-76
2021/05/17 03:45:49;;;;;;;;;;;12.70;99.90;;;12.82;88.93;99768.16;4808198;29;19939;-78
2021/05/17 03:48:18;;;;;;;;;;;12.70;99.90;;;12.67;88.77;99763.31;4808203;29;20026;-77
2021/05/17 03:50:46;;;;;;;;;;;12.60;99.90;;;12.86;88.99;99771.56;4824613;29;19925;-78
2021/05/17 03:53:13;;;;;;;;;;;12.70;99.90;;;12.86;88.67;99767.13;4824594;29;19977;-78
2021/05/17 03:55:41;;;;;;;;;;;12.70;99.90;;;12.75;89.07;99769.25;4824614;29;19968;-77
2021/05/17 03:58:09;;;;;;;;;;;12.60;99.90;;;12.71;89.07;99775.56;4824604;29;20379;-77
2021/05/17 04:00:37;;;;;;;;;;;12.60;99.90;;;12.63;89.63;99737.78;4824387;29;20333;-78
2021/05/17 04:03:13;;;;;;;;;;;12.60;99.90;;;12.67;88.99;99747.41;4824495;29;19925;-78
2021/05/17 04:05:54;;;;;;;;;;;12.60;99.90;;;12.90;89.09;99776.75;4824422;29;19947;-78
2021/05/17 04:13:54;;;;;;;;;;;12.70;99.90;;;12.87;89.35;99771.53;4824413;29;19928;-76
2021/05/17 04:16:22;;;;;;;;;;;12.70;99.90;;;12.92;89.17;99780.22;4824322;29;19981;-80
2021/05/17 04:18:51;;;;;;;;;;;12.70;99.90;;;12.87;88.71;99778.63;4824335;29;19929;-77
2021/05/17 04:21:20;;;;;;;;;;;12.80;99.90;;;12.87;88.81;99771.53;4824266;29;19980;-77
2021/05/17 04:23:47;;;;;;;;;;;12.70;99.90;;;12.91;88.57;99767.84;4824259;29;20028;-80
2021/05/17 04:26:15;;;;;;;;;;;12.80;99.90;;;13.05;88.45;99767.44;4824248;29;19925;-79
2021/05/17 04:28:43;;;;;;;;;;;12.90;99.90;;;12.99;88.41;99771.13;4824139;29;19932;-81
2021/05/17 04:31:10;;;;;;;;;;;12.80;99.90;;;12.97;88.87;99762.34;4824160;29;19928;-83
2021/05/17 04:33:38;;;;;;;;;;;12.80;99.90;;;13.08;88.99;99780.63;4823907;29;20428;-83
2021/05/17 04:36:06;;;;;;;;;;;12.90;99.90;;;13.01;88.82;99769.28;4824150;29;19925;-83
2021/05/17 04:38:35;;;;;;;;;;;12.80;99.90;;;12.94;89.24;99774.84;4824087;29;20272;-84
2021/05/17 04:41:03;;;;;;;;;;;12.80;99.90;;;12.93;89.66;99776.63;4824051;29;19958;-84
2021/05/17 04:43:30;;;;;;;;;;;12.80;99.90;;;12.45;89.79;99666.75;4824472;29;19940;-81
2021/05/17 04:45:58;;;;;;;;;;;12.90;99.90;;;13.06;89.99;99788.66;4827333;29;20333;-73
2021/05/17 04:48:26;;;;;;;;;;;12.90;99.90;;;12.91;89.58;99770.50;4827336;29;19933;-77
2021/05/17 04:50:53;;;;;;;;;;;12.90;99.90;;;12.22;89.72;99661.28;4827298;29;19925;-79
2021/05/17 04:53:21;;;;;;;;;;;12.80;99.90;;;12.89;89.92;99777.63;4810839;29;19935;-78
2021/05/17 04:55:50;;;;;;;;;;;12.80;99.90;;;12.96;89.75;99786.28;4827204;29;19925;-78
2021/05/17 04:58:17;;;;;;;;;;;12.80;99.90;;;12.92;89.97;99774.91;4827238;29;19924;-79
2021/05/17 05:00:45;;;;;;;;;;;12.80;99.90;;;12.85;90.10;99768.06;4810767;29;20332;-78
2021/05/17 05:03:13;;;;;;;;;;;12.70;99.90;;;12.78;90.67;99768.28;4826997;29;20391;-79
2021/05/17 05:05:40;;;;;;;;;;;12.60;99.90;;;12.96;90.36;99778.31;4827039;29;19929;-78
2021/05/17 05:08:08;;;;;;;;;;;12.80;99.90;;;13.09;90.19;99783.22;4826945;29;19924;-79
2021/05/17 05:10:36;;;;;;;;;;;12.90;99.90;;;13.14;89.74;99786.59;4810661;29;20441;-79
2021/05/17 05:13:07;;;;;;;;;;;12.90;99.90;;;13.16;89.32;99784.75;4826836;29;19935;-79
2021/05/17 05:15:35;;;;;;;;;;;13.00;99.90;;;13.26;89.10;99785.31;4826791;29;19925;-80
2021/05/17 05:18:02;;;;;;;;;;;13.00;99.90;;;13.26;89.00;99790.63;4826708;29;19932;-78
2021/05/17 05:20:31;;;;;;;;;;;13.10;99.90;;;13.21;88.75;99785.50;4809947;29;19982;-79
2021/05/17 05:23:01;;;;;;;;;;;13.10;99.90;;;13.34;88.59;99784.16;4826815;29;19935;-79
2021/05/17 05:25:37;;;;;;;;;;;13.10;99.90;;;13.30;88.82;99792.28;4826674;29;19929;-77
2021/05/17 05:28:04;;;;;;;;;;;13.10;99.90;;;13.27;88.67;99781.78;4826626;29;20042;-79
2021/05/17 05:30:44;;;;;;;;;;;13.10;99.90;;;13.30;88.50;99794.94;4826593;29;19968;-79
2021/05/17 05:33:15;;;;;;;;;;;13.10;99.90;;;13.30;88.24;99782.53;4826863;29;19994;-80
2021/05/17 05:35:43;;;;;;;;;;;13.10;99.90;;;13.31;88.09;99797.56;4826285;29;20391;-80
2021/05/17 05:38:11;;;;;;;;;;;13.10;99.90;;;13.30;88.04;99790.50;4826677;29;19973;-79
2021/05/17 05:40:39;;;;;;;;;;;13.10;99.90;;;13.26;88.08;99793.28;4826402;29;19932;-79
2021/05/17 05:43:07;;;;;;;;;;;13.00;99.90;;;12.75;88.37;99699.41;4826414;29;20434;-79
2021/05/17 05:45:43;;;;;;;;;;;13.00;99.90;;;13.29;88.04;99807.38;4826075;29;19936;-80
2021/05/17 05:48:11;;;;;;;;;;;13.10;99.90;;;13.25;87.81;99797.75;4826190;29;19985;-80
2021/05/17 05:50:45;;;;;;;;;;;13.10;99.90;;;13.30;87.88;99798.47;4810046;29;19924;-80
2021/05/17 05:53:13;;;;;;;;;;;13.10;99.90;;;13.36;87.91;99797.41;4826270;29;19924;-80
2021/05/17 05:55:41;;;;;;;;;;;13.10;99.90;;;13.34;87.68;99804.53;4826124;29;19962;-79
2021/05/17 05:58:09;;;;;;;;;;;13.10;99.90;;;13.14;87.75;99797.22;4826234;29;19987;-82
2021/05/17 06:00:37;;;;;;;;;;;13.10;99.90;;;13.26;87.88;99807.44;4826134;29;19935;-80
2021/05/17 06:03:05;;;;;;;;;;;13.10;99.90;;;13.35;87.45;99812.50;4809654;29;20434;-82
2021/05/17 06:05:34;;;;;;;;;;;13.10;99.90;;;13.37;87.67;99809.78;4825624;29;19924;-81
2021/05/17 06:08:02;;;;;;;;;;;13.20;99.90;;;13.41;87.65;99806.09;4825730;29;19929;-79
2021/05/17 06:10:31;;;;;;;;;;;13.20;99.90;;;13.46;87.40;99809.47;4809911;29;19973;-82
2021/05/17 06:12:59;;;;;;;;;;;13.30;99.90;;;13.49;87.50;99815.53;4825676;29;19925;-82
2021/05/17 06:15:27;;;;;;;;;;;13.30;99.90;;;13.62;87.58;99804.50;4825620;29;19929;-82
2021/05/17 06:17:57;;;;;;;;;;;13.40;99.90;;;13.56;87.11;99814.44;4825817;29;20310;-82
2021/05/17 06:20:25;;;;;;;;;;;13.40;99.90;;;13.61;86.90;99824.03;4825797;29;19989;-82
2021/05/17 06:22:53;;;;;;;;;;;13.40;99.90;;;13.57;86.82;99818.81;4825495;29;19968;-81
2021/05/17 06:25:22;;;;;;;;;;;13.40;99.90;;;13.67;86.44;99815.84;4825675;29;19924;-83
2021/05/17 06:27:50;;;;;;;;;;;13.50;99.90;;;13.67;86.14;99819.38;4809452;29;20444;-82
2021/05/17 06:30:20;;;;;;;;;;;13.40;99.90;;;13.52;85.98;99799.50;4825703;29;19924;-83
2021/05/17 06:32:48;;;;;;;;;;;13.50;99.90;;;13.62;86.13;99825.75;4825440;29;19928;-82
2021/05/17 06:35:24;;;;;;;;;;;13.40;99.90;;;13.75;86.02;99819.97;4809019;29;19925;-84
2021/05/17 06:37:51;;;;;;;;;;;13.50;99.90;;;13.82;86.15;99824.16;4825584;29;19925;-84
2021/05/17 06:40:19;;;;;;;;;;;13.60;99.90;;;13.85;85.89;99824.06;4825430;29;20444;-83
2021/05/17 06:42:48;;;;;;;;;;;13.70;99.90;;;13.76;85.66;99824.38;4825444;29;19973;-84
2021/05/17 06:45:17;;;;;;;;;;;13.60;99.90;;;13.77;85.70;99841.19;4825355;29;20367;-83
2021/05/17 06:47:45;;;;;;;;;;;13.50;99.90;;;13.79;85.62;99829.59;4825462;29;19935;-80
2021/05/17 06:50:14;;;;;;;;;;;13.60;99.90;;;13.75;85.29;99816.44;4825465;29;19958;-84
2021/05/17 06:52:43;;;;;;;;;;;13.50;99.90;;;13.83;85.64;99836.53;4825066;29;20387;-84
2021/05/17 06:55:16;;;;;;;;;;;13.60;99.90;;;13.92;85.86;99836.22;4824952;29;20015;-84
2021/05/17 06:57:58;;;;;;;;;;;13.70;99.90;;;14.02;86.20;99836.75;4825276;29;20368;-84
2021/05/17 07:00:29;;;;;;;;;;;13.80;99.90;;;14.08;85.61;99844.53;4825415;29;19932;-81
2021/05/17 07:02:58;;;;;;;;;;;13.90;99.90;;;14.15;85.44;99854.88;4825442;29;19932;-83
2021/05/17 07:05:26;;;;;;;;;;;13.90;99.90;;;14.19;85.02;99845.00;4824900;29;19977;-80
2021/05/17 07:13:27;;;;;;;;;;;14.20;99.90;;;14.39;83.42;99858.50;4808763;29;19929;-83
2021/05/17 07:15:55;;;;;;;;;;;14.20;99.90;;;14.36;83.07;99854.16;4825012;29;19950;-82
2021/05/17 07:18:22;;;;;;;;;;;14.20;99.90;;;14.46;83.46;99865.34;4825303;29;19924;-82
2021/05/17 07:23:41;;;;;;;;;;;14.30;99.90;;;14.49;82.26;99859.91;4808619;29;19925;-82
2021/05/17 07:26:14;;;;;;;;;;;14.30;99.90;;;14.46;82.35;99871.53;4825017;29;19925;-82
2021/05/17 07:28:42;;;;;;;;;;;14.30;99.90;;;14.50;81.70;99871.44;4824968;29;20295;-83
2021/05/17 07:31:10;;;;;;;;;;;14.30;99.90;;;14.51;81.95;99867.84;4824578;29;19924;-82
2021/05/17 07:33:39;;;;;;;;;;;14.30;99.90;;;14.58;81.68;99869.34;4825315;29;19929;-81
2021/05/17 07:36:07;;;;;;;;;;;14.30;99.90;;;14.51;81.33;99874.03;4824911;29;19938;-82
2021/05/17 07:38:35;;;;;;;;;;;14.30;99.90;;;14.52;81.12;99872.25;4824757;29;19971;-82
2021/05/17 07:41:04;;;;;;;;;;;14.30;99.90;;;14.48;81.32;99899.91;4808282;29;19931;-83
2021/05/17 07:43:31;;;;;;;;;;;14.30;99.90;;;14.52;81.34;99877.56;4824930;29;19929;-82
2021/05/17 07:45:59;;;;;;;;;;;14.30;99.90;;;14.63;81.28;99876.25;4824858;29;19929;-82
2021/05/17 07:48:27;;;;;;;;;;;14.40;99.90;;;14.58;81.46;99882.66;4824672;29;19924;-83
2021/05/17 07:50:55;;;;;;;;;;;14.40;99.90;;;14.62;81.08;99876.28;4824388;29;20391;-82
2021/05/17 07:53:22;;;;;;;;;;;14.40;99.90;;;14.60;81.28;99873.69;4824546;29;19947;-82
2021/05/17 07:55:52;;;;;;;;;;;14.40;99.90;;;14.57;81.27;99880.94;4824540;29;19928;-81
2021/05/17 07:58:21;;;;;;;;;;;14.40;99.90;;;14.55;81.88;99885.44;4824140;29;19929;-79
2021/05/17 08:00:48;;;;;;;;;;;14.40;99.90;;;14.63;81.72;99894.88;4824506;29;19924;-81
2021/05/17 08:03:16;;;;;;;;;;;14.40;99.90;;;14.78;82.27;99888.13;4824413;29;19925;-81
2021/05/17 08:05:57;;;;;;;;;;;14.50;99.90;;;14.79;81.76;99895.19;4824819;29;19925;-83
2021/05/17 08:08:25;;;;;;;;;;;14.60;99.90;;;14.85;80.76;99898.47;4824449;29;20344;-79
2021/05/17 08:10:53;;;;;;;;;;;14.70;99.90;;;14.85;80.95;99894.94;4824462;29;19932;-81
2021/05/17 08:13:22;;;;;;;;;;;14.70;99.90;;;15.02;81.09;99906.69;4824322;29;19993;-79
2021/05/17 08:16:10;;;;;;;;;;;14.80;99.90;;;14.99;80.79;99912.16;4824144;29;19924;-81
2021/05/17 08:18:38;;;;;;;;;;;14.80;99.90;;;14.85;81.13;99908.25;4824930;29;20331;-82
2021/05/17 08:21:06;;;;;;;;;;;14.70;99.90;;;14.82;81.85;99911.03;4827779;29;20552;-81
2021/05/17 08:23:35;;;;;;;;;;;14.50;99.90;;;14.75;82.20;99910.38;4827833;29;20000;-81
2021/05/17 08:26:05;;;;;;;;;;;14.50;99.90;;;14.78;82.05;99920.06;4827779;29;20034;-81
2021/05/17 08:28:34;;;;;;;;;;;14.50;99.90;;;14.78;81.77;99909.41;4827654;29;19932;-80
2021/05/17 08:31:02;;;;;;;;;;;14.60;99.90;;;14.69;81.86;99883.16;4827628;29;19932;-80
2021/05/17 08:33:32;;;;;;;;;;;14.60;99.90;;;14.96;81.49;99930.88;4827144;29;20329;-81
2021/05/17 08:36:00;;;;;;;;;;;14.70;99.90;;;14.98;81.63;99934.38;4827473;29;19929;-81
2021/05/17 08:38:29;;;;;;;;;;;14.70;99.90;;;15.08;81.86;99941.09;4827493;29;19925;-81
2021/05/17 08:40:56;;;;;;;;;;;14.80;99.90;;;15.15;81.18;99937.28;4827312;29;19925;-80
2021/05/17 08:43:24;;;;;;;;;;;14.90;99.90;;;15.25;80.84;99943.97;4827325;29;19925;-80
2021/05/17 08:45:53;;;;;;;;;;;15.00;99.90;;;15.36;80.39;99946.25;4810964;29;20059;-82
2021/05/17 08:48:21;;;;;;;;;;;15.10;99.90;;;15.42;79.56;99939.84;4827266;29;19931;-81
2021/05/17 08:50:49;;;;;;;;;;;15.20;99.90;;;15.62;79.69;99942.59;4827219;29;19936;-81
2021/05/17 08:53:17;;;;;;;;;;;15.40;99.90;;;15.72;78.77;99947.50;4827524;29;19925;-81
2021/05/17 08:55:45;;;;;;;;;;;15.50;99.90;;;15.86;78.23;99934.47;4810851;29;20339;-81
2021/05/17 08:58:13;;;;;;;;;;;15.70;99.90;;;15.91;78.48;99944.97;4810574;29;19932;-82
2021/05/17 09:00:40;;;;;;;;;;;15.70;99.90;;;15.82;77.51;99974.66;4827042;29;19925;-80
2021/05/17 09:03:09;;;;;;;;;;;15.60;99.90;;;15.81;77.80;99952.47;4827044;29;19924;-81
2021/05/17 09:05:38;;;;;;;;;;;15.60;99.90;;;15.91;77.19;99964.47;4826616;29;20383;-80
2021/05/17 09:08:06;;;;;;;;;;;15.70;99.90;;;15.77;76.86;99965.97;4826989;29;20383;-80
2021/05/17 09:10:35;;;;;;;;;;;15.60;99.90;;;15.73;77.17;99948.38;4827132;29;20325;-81
2021/05/17 09:13:05;;;;;;;;;;;15.60;99.90;;;15.79;77.50;99964.13;4826856;29;19924;-81
2021/05/17 09:15:38;;;;;;;;;;;15.60;99.90;;;16.02;77.16;99977.41;4810549;29;19925;-80
2021/05/17 09:18:07;;;;;;;;;;;15.70;99.90;;;16.11;77.39;99969.00;4826582;29;19929;-80
2021/05/17 09:20:37;;;;;;;;;;;15.80;99.90;;;16.10;77.05;99968.13;4810487;29;20653;-81
2021/05/17 09:23:07;;;;;;;;;;;15.90;99.90;;;16.24;76.99;99976.44;4826365;29;20416;-81
2021/05/17 09:25:35;;;;;;;;;;;16.00;99.90;;;16.29;76.87;99981.59;4826446;29;19932;-80
2021/05/17 09:28:04;;;;;;;;;;;16.10;99.90;;;16.31;77.11;99982.41;4826600;29;20290;-80
2021/05/17 09:30:48;;;;;;;;;;;16.10;99.90;;;16.33;76.78;99993.88;4826081;29;20023;-78
2021/05/17 09:33:17;;;;;;;;;;;16.10;99.90;;;16.38;75.75;99994.53;4810177;29;20375;-81
2021/05/17 09:35:47;;;;;;;;;;;16.20;99.90;;;16.44;75.60;99998.75;4826587;29;20442;-81
2021/05/17 09:38:22;;;;;;;;;;;16.30;99.90;;;16.40;75.18;100000.69;4826527;29;19925;-80
2021/05/17 09:41:05;;;;;;;;;;;16.20;99.90;;;16.13;76.54;100002.72;4810130;29;19925;-80
2021/05/17 09:43:33;;;;;;;;;;;16.00;99.90;;;15.78;78.00;100002.38;4826775;29;19933;-78
2021/05/17 09:46:01;;;;;;;;;;;15.70;99.90;;;15.71;78.21;100006.22;4826344;29;19925;-80
2021/05/17 09:48:45;;;;;;;;;;;15.60;99.90;;;15.41;78.96;100010.03;4826540;29;19979;-80
2021/05/17 09:51:15;;;;;;;;;;;15.30;99.90;;;15.52;79.31;100018.53;4809992;29;20023;-77
2021/05/17 09:53:44;;;;;;;;;;;15.30;99.90;;;15.27;79.95;100015.88;4826625;29;19935;-79
2021/05/17 09:56:15;;;;;;;;;;;15.10;99.90;;;14.93;80.29;99986.06;4826005;29;19928;-81
2021/05/17 09:58:44;;;;;;;;;;;14.90;99.90;;;14.90;80.86;99994.19;4826419;29;19928;-81
2021/05/17 10:01:15;;;;;;;;;;;14.80;99.90;;;14.86;81.61;100020.06;4809641;29;20432;-80
2021/05/17 10:03:45;;;;;;;;;;;14.70;99.90;;;14.79;82.79;100005.19;4826013;29;19924;-80
2021/05/17 10:06:18;;;;;;;;;;;14.70;99.90;;;14.74;82.48;100031.13;4826091;29;19932;-82
2021/05/17 10:08:46;;;;;;;;;;;14.60;99.90;;;14.81;82.99;100037.97;4809801;29;19925;-81
2021/05/17 10:11:15;;;;;;;;;;;14.60;99.90;;;14.63;82.99;100017.31;4825958;29;19960;-81
2021/05/17 10:13:43;;;;;;;;;;;14.60;99.90;;;14.77;84.09;100041.66;4825966;29;19935;-80
2021/05/17 10:16:12;;;;;;;;;;;14.60;99.90;;;14.80;83.81;100046.88;4825986;29;19925;-80
2021/05/17 10:18:41;;;;;;;;;;;14.60;99.90;;;14.73;83.26;100013.38;4825867;29;20395;-79
2021/05/17 10:21:10;;;;;;;;;;;14.70;99.90;;;15.12;82.79;100056.38;4825830;29;19928;-81
2021/05/17 10:23:41;;;;;;;;;;;14.90;99.90;;;15.27;82.01;100058.50;4825521;29;19925;-81
2021/05/17 10:26:12;;;;;;;;;;;15.00;99.90;;;15.31;80.80;100055.66;4825816;29;19932;-81
2021/05/17 10:28:42;;;;;;;;;;;15.20;99.90;;;15.12;80.53;100064.38;4825812;29;20019;-80
2021/05/17 10:31:13;;;;;;;;;;;15.00;99.90;;;15.02;80.48;100060.31;4825791;29;19928;-78
2021/05/17 10:33:42;;;;;;;;;;;14.90;99.90;;;14.99;81.44;100079.94;4825597;29;19928;-79
2021/05/17 10:36:11;;;;;;;;;;;14.80;99.90;;;15.07;81.80;100085.88;4825759;29;19981;-80
2021/05/17 10:38:44;;;;;;;;;;;14.90;99.90;;;14.95;80.99;100067.66;4825627;29;19924;-80
2021/05/17 10:41:43;;;;;;;;;;;14.90;99.90;;;15.41;80.46;100087.31;4824620;29;19933;-79
2021/05/17 10:44:18;;;;;;;;;;;15.10;99.90;;;15.19;79.70;100076.56;4825657;29;19973;-80
2021/05/17 10:46:48;;;;;;;;;;;15.10;99.90;;;15.07;78.24;100093.84;4825552;29;19925;-80
2021/05/17 10:49:30;;;;;;;;;;;15.00;99.90;;;15.13;78.19;100111.41;4825613;29;19925;-80
2021/05/17 10:52:21;;;;;;;;;;;14.90;99.90;;;15.39;78.33;100114.00;4809151;29;19936;-79
2021/05/17 10:55:07;;;;;;;;;;;15.20;99.90;;;15.37;79.06;100108.75;4825246;29;19924;-79
2021/05/17 10:57:46;;;;;;;;;;;15.30;99.90;;;15.25;79.43;100119.81;4825231;29;19932;-80
2021/05/17 11:00:24;;;;;;;;;;;15.10;99.90;;;15.44;79.46;100136.09;4824704;29;19925;-79
2021/05/17 11:03:13;;;;;;;;;;;15.20;99.90;;;15.48;79.59;100139.50;4825141;29;19932;-79
2021/05/17 11:05:42;;;;;;;;;;;15.30;99.90;;;15.46;80.14;100144.00;4825224;29;20340;-79
2021/05/17 11:08:11;;;;;;;;;;;15.30;99.90;;;15.72;78.32;100149.25;4825550;29;19924;-78
2021/05/17 11:10:41;;;;;;;;;;;15.50;99.90;;;15.65;78.04;100151.28;4824907;29;20248;-79
2021/05/17 11:13:11;;;;;;;;;;;15.40;99.90;;;15.79;75.85;100154.34;4808649;29;19929;-77
2021/05/17 11:15:54;;;;;;;;;;;15.60;99.90;;;16.08;75.36;100159.44;4808629;29;20041;-79
2021/05/17 11:18:47;;;;;;;;;;;15.90;99.90;;;15.71;75.20;100156.41;4825275;29;19961;-78
2021/05/17 11:21:26;;;;;;;;;;;15.70;99.90;;;15.81;75.47;100171.16;4802834;29;20393;-78
2021/05/17 11:24:05;;;;;;;;;;;15.60;99.90;;;15.58;75.03;100172.91;4824954;29;19925;-78
2021/05/17 11:26:52;;;;;;;;;;;15.50;99.90;;;15.54;75.53;100181.94;4824888;29;19935;-78
2021/05/17 11:29:30;;;;;;;;;;;15.30;99.90;;;15.88;75.29;100185.09;4824858;29;19928;-77
2021/05/17 11:32:18;;;;;;;;;;;15.60;99.90;;;16.03;74.48;100200.53;4808368;29;19947;-77
2021/05/17 11:35:03;;;;;;;;;;;15.80;99.90;;;15.95;73.82;100207.97;4824868;29;20028;-77
2021/05/17 11:37:33;;;;;;;;;;;15.70;99.90;;;16.07;72.96;100213.72;4824464;29;20418;-79
2021/05/17 11:40:28;;;;;;;;;;;15.90;99.90;;;15.98;72.68;100210.53;4825063;29;19936;-77
2021/05/17 11:42:58;;;;;;;;;;;15.80;99.90;;;15.84;72.77;100231.47;4824400;29;20323;-79
2021/05/17 11:45:26;;;;;;;;;;;15.70;99.90;;;15.69;73.38;100229.38;4824637;29;19973;-78
2021/05/17 11:47:53;;;;;;;;;;;15.60;99.90;;;15.35;73.80;100250.94;4824253;29;19971;-79